Time;durP1;ratioP1;P1;durP2;ratioP2;P2;SDS_P1;SDS_P2;PMS_P1;PMS_P2;Temp;Humidity;BMP_temperature;BMP_pressure;BME280_temperature;BME280_humidity;BME280_pressure;Samples;Min_cycle;Max_cycle;Signal;HPM_P1;HPM_P2
2021/12/27 00:01:24;;;;;;;29.42;22.20;;;;;;;14.43;61.62;101332.97;144993;790;6002;-89
2021/12/27 00:03:52;;;;;;;32.33;23.45;;;;;;;14.43;61.94;101346.03;144993;617;6002;-87
2021/12/27 00:06:18;;;;;;;32.05;26.05;;;;;;;14.44;61.75;101334.72;144993;569;6002;-89
2021/12/27 00:08:45;;;;;;;33.42;25.95;;;;;;;14.38;62.31;101334.63;144993;803;6002;-87
2021/12/27 00:11:13;;;;;;;33.17;26.30;;;;;;;14.38;61.80;101336.31;144993;611;6002;-88
2021/12/27 00:13:40;;;;;;;30.83;25.77;;;;;;;14.38;61.77;101337.22;144992;690;6002;-90
2021/12/27 00:16:07;;;;;;;31.77;25.12;;;;;;;14.37;61.82;101335.44;144992;625;6002;-87
2021/12/27 00:18:34;;;;;;;34.05;24.65;;;;;;;14.40;62.06;101343.34;144992;569;6002;-88
2021/12/27 00:21:03;;;;;;;34.40;26.33;;;;;;;14.32;62.65;101334.47;144992;766;6002;-90
2021/12/27 00:23:33;;;;;;;34.72;26.67;;;;;;;14.30;62.18;101330.91;144992;687;6002;-89
2021/12/27 00:25:59;;;;;;;34.97;27.37;;;;;;;14.24;62.39;101347.31;144992;585;6002;-91
2021/12/27 00:28:27;;;;;;;33.92;26.45;;;;;;;14.27;62.36;101342.19;144993;676;6002;-88
2021/12/27 00:30:53;;;;;;;28.45;22.55;;;;;;;14.02;64.45;101338.06;144993;705;6002;-88
2021/12/27 00:33:20;;;;;;;30.33;23.65;;;;;;;14.14;62.69;101337.47;144993;612;6002;-88
2021/12/27 00:35:48;;;;;;;31.40;21.92;;;;;;;14.20;62.30;101329.81;144993;742;6002;-91
2021/12/27 00:38:16;;;;;;;27.83;21.37;;;;;;;13.96;63.75;101328.34;144993;599;6002;-90
2021/12/27 00:40:43;;;;;;;27.65;21.80;;;;;;;14.08;63.29;101330.41;144993;629;6002;-89
2021/12/27 00:43:12;;;;;;;27.17;22.33;;;;;;;14.04;63.54;101325.94;144993;693;6002;-89
2021/12/27 00:45:39;;;;;;;26.65;20.33;;;;;;;14.04;63.02;101318.09;144993;566;6002;-91
2021/12/27 00:48:05;;;;;;;25.15;20.70;;;;;;;14.10;63.15;101326.09;144993;640;6002;-90
2021/12/27 00:50:32;;;;;;;33.00;25.00;;;;;;;14.15;63.20;101314.03;144992;567;6002;-88
2021/12/27 00:52:59;;;;;;;32.50;25.20;;;;;;;14.22;62.87;101329.84;144993;586;6002;-90
2021/12/27 00:55:25;;;;;;;34.33;25.52;;;;;;;14.26;62.91;101329.09;144993;569;6002;-90
2021/12/27 00:57:53;;;;;;;29.30;23.52;;;;;;;14.27;62.88;101333.44;144993;570;6002;-89
2021/12/27 01:00:23;;;;;;;28.80;20.25;;;;;;;14.28;62.80;101325.66;144993;593;6002;-90
2021/12/27 01:02:53;;;;;;;25.95;19.85;;;;;;;14.30;62.46;101336.13;144993;776;6002;-89
2021/12/27 01:05:22;;;;;;;28.02;20.70;;;;;;;14.32;62.65;101329.25;144992;629;6002;-90
2021/12/27 01:07:50;;;;;;;26.87;21.20;;;;;;;14.34;62.79;101330.16;144992;643;6002;-89
2021/12/27 01:10:53;;;;;;;28.73;22.60;;;;;;;14.39;62.70;101327.66;144993;608;6002;-89
2021/12/27 01:13:23;;;;;;;29.42;21.12;;;;;;;14.40;62.92;101321.59;144993;587;6004;-89
2021/12/27 01:16:10;;;;;;;25.58;19.08;;;;;;;14.42;62.56;101327.72;144993;594;6002;-89
2021/12/27 01:18:48;;;;;;;26.08;18.60;;;;;;;14.42;62.45;101319.88;144993;698;6002;-87
2021/12/27 01:21:18;;;;;;;25.37;18.40;;;;;;;14.41;62.52;101326.84;144994;641;5002;-90
2021/12/27 01:23:47;;;;;;;26.70;18.30;;;;;;;14.43;63.00;101321.66;144994;614;5002;-89
2021/12/27 01:26:16;;;;;;;26.08;18.23;;;;;;;14.45;62.88;101327.78;144994;600;5002;-89
2021/12/27 01:28:43;;;;;;;24.52;19.45;;;;;;;14.47;62.77;101336.53;144994;705;5002;-90
2021/12/27 01:31:10;;;;;;;25.67;19.50;;;;;;;14.48;62.98;101326.13;144994;575;5002;-89
2021/12/27 01:33:38;;;;;;;23.42;18.92;;;;;;;14.50;63.12;101321.81;144994;684;5002;-90
2021/12/27 01:36:06;;;;;;;24.55;16.73;;;;;;;14.50;63.13;101321.81;144994;617;5002;-89
2021/12/27 01:38:37;;;;;;;18.35;13.98;;;;;;;14.52;62.54;101321.84;144994;577;5002;-91
2021/12/27 01:41:05;;;;;;;17.95;13.57;;;;;;;14.53;62.95;101331.47;144994;589;5002;-90
2021/12/27 01:43:34;;;;;;;19.55;13.73;;;;;;;14.53;63.12;101318.41;144994;600;5002;-91
2021/12/27 01:46:10;;;;;;;20.55;14.93;;;;;;;14.55;62.69;101326.28;144994;564;5002;-90
2021/12/27 01:48:44;;;;;;;17.87;13.52;;;;;;;14.55;62.73;101321.94;144994;624;5002;-87
2021/12/27 01:51:12;;;;;;;15.43;11.95;;;;;;;14.56;62.91;101323.69;144994;623;5002;-90
2021/12/27 01:53:41;;;;;;;14.87;11.27;;;;;;;14.57;62.94;101321.97;144994;672;5002;-89
2021/12/27 01:56:10;;;;;;;14.95;10.60;;;;;;;14.57;62.68;101321.97;144994;570;5002;-90
2021/12/27 01:58:37;;;;;;;12.20;9.35;;;;;;;14.56;62.84;101313.25;144994;571;5002;-89
2021/12/27 02:01:06;;;;;;;14.82;10.05;;;;;;;14.55;62.61;101311.47;144994;625;5002;-86
2021/12/27 02:03:34;;;;;;;14.95;10.20;;;;;;;14.51;62.57;101320.97;144994;714;5003;-88
2021/12/27 02:06:01;;;;;;;11.60;9.85;;;;;;;14.44;62.47;101312.97;144993;657;5002;-90
2021/12/27 02:08:28;;;;;;;13.35;10.13;;;;;;;14.26;62.68;101303.84;144994;592;5002;-88
2021/12/27 02:10:56;;;;;;;13.23;9.90;;;;;;;14.24;63.14;101315.13;144994;619;5003;-90
2021/12/27 02:13:23;;;;;;;13.52;10.02;;;;;;;14.28;62.51;101309.97;144994;600;5002;-90
2021/12/27 02:15:50;;;;;;;14.45;9.25;;;;;;;14.30;62.27;101295.25;144994;593;5002;-89
2021/12/27 02:18:17;;;;;;;13.73;10.20;;;;;;;14.07;63.05;101312.09;144994;707;5002;-89
2021/12/27 02:20:46;;;;;;;13.10;10.27;;;;;;;14.14;63.00;101317.50;144994;610;5002;-90
2021/12/27 02:23:16;;;;;;;14.70;9.40;;;;;;;14.16;62.68;101309.69;144994;610;5002;-89
2021/12/27 02:25:46;;;;;;;11.95;9.65;;;;;;;14.20;62.42;101302.81;144994;617;5002;-90
2021/12/27 02:28:24;;;;;;;14.13;9.45;;;;;;;14.04;62.97;101298.94;144994;654;5002;-87
2021/12/27 02:31:02;;;;;;;12.00;9.65;;;;;;;14.07;62.60;101291.19;144994;633;5002;-83
2021/12/27 02:33:31;;;;;;;11.88;10.05;;;;;;;14.10;62.55;101313.03;144994;659;5002;-90
2021/12/27 02:36:02;;;;;;;13.80;11.00;;;;;;;14.09;62.68;101290.41;144993;584;5002;-91
2021/12/27 02:38:45;;;;;;;11.63;9.57;;;;;;;14.04;62.40;101285.91;144994;572;5002;-88
2021/12/27 02:41:14;;;;;;;14.45;10.70;;;;;;;14.14;62.37;101293.09;144994;564;5002;-87
2021/12/27 02:43:43;;;;;;;15.30;11.88;;;;;;;14.18;62.22;101294.06;144994;592;5002;-91
2021/12/27 02:46:14;;;;;;;14.77;11.23;;;;;;;14.21;61.64;101291.53;144994;606;5002;-91
2021/12/27 02:48:47;;;;;;;18.70;12.15;;;;;;;14.25;62.22;101298.59;144994;588;5002;-88
2021/12/27 02:51:17;;;;;;;14.77;11.75;;;;;;;14.25;61.60;101302.09;144994;591;5002;-89
2021/12/27 02:53:54;;;;;;;19.50;13.38;;;;;;;14.26;61.84;101309.06;144994;641;5002;-86
2021/12/27 02:56:30;;;;;;;14.10;11.95;;;;;;;14.27;61.67;101313.47;144994;608;5002;-91
2021/12/27 02:59:12;;;;;;;17.48;12.52;;;;;;;14.29;61.99;101300.44;144994;701;5002;-88
2021/12/27 03:02:04;;;;;;;;;;;;;;;;;;;;;
2021/12/27 03:04:51;;;;;;;;;;;;;;;;;;;;;
2021/12/27 03:07:37;;;;;;;17.75;13.52;;;;;;;14.37;61.86;101300.63;144994;761;5002;-88
2021/12/27 03:10:09;;;;;;;18.25;13.32;;;;;;;14.36;61.43;101304.94;144994;523;5002;-89
2021/12/27 03:12:38;;;;;;;16.50;12.95;;;;;;;14.39;61.66;101314.59;144994;636;5002;-88
2021/12/27 03:15:08;;;;;;;18.58;14.45;;;;;;;14.38;61.92;101313.72;144994;707;5002;-89
2021/12/27 03:18:08;;;;;;;20.10;15.05;;;;;;;14.24;62.13;101289.00;144994;572;5002;-89
2021/12/27 03:20:53;;;;;;;;;;;;;;;;;;;;;
2021/12/27 03:23:50;;;;;;;21.60;14.25;;;;;;;14.27;61.91;101304.72;144994;563;5002;-82
2021/12/27 03:26:21;;;;;;;20.42;16.15;;;;;;;14.30;62.34;101313.53;144994;657;5002;-89
2021/12/27 03:28:48;;;;;;;20.60;15.32;;;;;;;14.31;61.98;101310.06;144994;718;5002;-90
2021/12/27 03:31:19;;;;;;;21.30;16.05;;;;;;;14.33;61.71;101300.53;144993;575;5002;-89
2021/12/27 03:33:56;;;;;;;21.00;16.12;;;;;;;14.32;62.37;101303.12;144994;615;5002;-91
2021/12/27 03:36:39;;;;;;;21.62;15.20;;;;;;;14.32;61.98;101310.97;144994;570;5002;-89
2021/12/27 03:39:29;;;;;;;20.40;16.27;;;;;;;14.32;62.13;101293.53;144994;611;5002;-89
2021/12/27 03:42:27;;;;;;;22.45;16.77;;;;;;;14.27;62.64;101300.41;144994;619;5004;-89
2021/12/27 03:45:29;;;;;;;22.62;16.75;;;;;;;14.29;62.17;101309.16;144994;606;5004;-90
2021/12/27 03:48:20;;;;;;;;;;;;;;;;;;;;;
2021/12/27 03:51:06;;;;;;;21.40;16.42;;;;;;;14.35;62.55;101308.41;144994;623;5004;-85
2021/12/27 03:53:45;;;;;;;21.42;16.55;;;;;;;14.37;62.22;101311.06;144994;564;5004;-89
2021/12/27 03:56:27;;;;;;;20.67;16.58;;;;;;;14.37;62.26;101304.09;144994;568;5004;-84
2021/12/27 03:59:52;;;;;;;26.65;17.60;;;;;;;14.40;62.46;101301.56;144994;623;5004;-90
2021/12/27 04:02:37;;;;;;;23.23;18.02;;;;;;;14.40;61.90;101301.56;144994;572;5005;-89
2021/12/27 04:05:24;;;;;;;24.35;17.83;;;;;;;14.42;62.38;101305.09;144994;566;5004;-82
2021/12/27 04:10:53;;;;;;;25.45;18.55;;;;;;;14.41;62.46;101312.88;144994;683;5002;-88
2021/12/27 04:13:33;;;;;;;27.27;19.23;;;;;;;14.42;62.14;101302.47;144994;569;5002;-82
2021/12/27 04:16:06;;;;;;;25.65;18.70;;;;;;;14.43;62.37;101300.78;144993;638;5002;-82
2021/12/27 04:18:46;;;;;;;23.48;17.65;;;;;;;14.43;62.33;101304.25;144994;594;5002;-89
2021/12/27 04:21:24;;;;;;;26.52;16.92;;;;;;;14.43;62.66;101298.16;144994;564;5002;-90
2021/12/27 04:24:02;;;;;;;22.98;17.45;;;;;;;14.38;62.59;101300.66;144994;571;5002;-83
2021/12/27 04:27:01;;;;;;;;;;;;;;;;;;;;;
2021/12/27 04:29:59;;;;;;;21.05;16.30;;;;;;;14.41;62.59;101308.56;144994;626;5004;-84
2021/12/27 04:33:01;;;;;;;24.83;18.12;;;;;;;14.43;62.63;101291.19;144994;590;5002;-89
2021/12/27 04:35:52;;;;;;;23.98;18.55;;;;;;;14.39;62.36;101299.78;144994;614;5002;-89
2021/12/27 04:38:38;;;;;;;27.08;18.25;;;;;;;14.35;62.91;101305.81;144994;585;5002;-89
2021/12/27 04:41:08;;;;;;;25.50;18.45;;;;;;;14.33;62.66;101299.62;144994;589;5002;-89
2021/12/27 04:43:35;;;;;;;23.48;18.27;;;;;;;14.08;64.65;101306.03;144994;597;5002;-89
2021/12/27 04:46:07;;;;;;;22.87;18.10;;;;;;;14.00;63.96;101318.88;144994;602;5002;-90
2021/12/27 04:48:34;;;;;;;23.83;18.10;;;;;;;14.06;63.66;101311.22;144994;579;5002;-90
2021/12/27 04:51:26;;;;;;;22.75;16.65;;;;;;;14.05;63.98;101296.38;144994;782;5002;-90
2021/12/27 04:53:57;;;;;;;24.73;16.85;;;;;;;14.10;63.63;101292.16;144994;630;5002;-90
2021/12/27 04:56:24;;;;;;;23.75;16.62;;;;;;;14.13;63.62;101293.97;144993;593;5002;-91
2021/12/27 04:58:52;;;;;;;26.77;17.75;;;;;;;14.15;63.33;101310.53;144994;645;5002;-88
2021/12/27 05:01:19;;;;;;;24.20;17.12;;;;;;;14.14;63.40;101304.44;144994;761;5002;-88
2021/12/27 05:03:45;;;;;;;21.50;16.75;;;;;;;14.14;63.57;101298.31;144994;564;5002;-89
2021/12/27 05:06:13;;;;;;;24.25;16.12;;;;;;;14.12;63.61;101300.00;144994;581;5002;-90
2021/12/27 05:08:42;;;;;;;24.15;17.12;;;;;;;14.12;63.86;101306.09;144994;571;5002;-90
2021/12/27 05:11:09;;;;;;;22.55;16.20;;;;;;;14.12;63.33;101305.25;144994;666;5002;-88
2021/12/27 05:13:37;;;;;;;24.87;16.50;;;;;;;14.12;63.82;101305.25;144994;586;5002;-90
2021/12/27 05:16:04;;;;;;;23.50;15.82;;;;;;;14.11;63.70;101303.47;144994;626;5002;-88
2021/12/27 05:18:31;;;;;;;24.10;15.75;;;;;;;14.09;63.55;101305.16;144994;576;5002;-89
2021/12/27 05:20:57;;;;;;;23.95;15.63;;;;;;;14.08;63.86;101306.91;144994;625;5002;-90
2021/12/27 05:23:25;;;;;;;23.58;14.90;;;;;;;14.07;63.44;101305.13;144994;577;5002;-89
2021/12/27 05:25:51;;;;;;;26.60;13.02;;;;;;;14.08;63.65;101317.34;144994;573;5002;-88
2021/12/27 05:28:18;;;;;;;21.10;14.02;;;;;;;14.07;63.81;101312.09;144994;563;5002;-88
2021/12/27 05:30:48;;;;;;;18.62;12.48;;;;;;;14.07;63.66;101306.84;144994;588;5002;-88
2021/12/27 05:33:15;;;;;;;20.67;13.23;;;;;;;14.05;63.69;101321.63;144994;614;5002;-88
2021/12/27 05:35:42;;;;;;;21.05;12.50;;;;;;;14.03;63.67;101316.34;144994;598;5002;-88
2021/12/27 05:38:09;;;;;;;22.40;13.73;;;;;;;14.01;63.81;101323.25;144994;643;5002;-88
2021/12/27 05:40:45;;;;;;;20.88;12.50;;;;;;;14.01;63.73;101314.53;144994;612;5002;-87
2021/12/27 05:43:11;;;;;;;17.30;11.63;;;;;;;13.98;63.75;101304.87;144994;594;5002;-91
2021/12/27 05:45:38;;;;;;;19.02;11.07;;;;;;;13.96;63.83;101309.19;144994;574;5002;-89
2021/12/27 05:48:06;;;;;;;18.60;11.68;;;;;;;13.95;63.96;101310.94;144994;564;5002;-89
2021/12/27 05:50:33;;;;;;;16.33;11.82;;;;;;;13.95;63.91;101304.81;144994;575;5002;-89
2021/12/27 05:53:01;;;;;;;16.10;11.25;;;;;;;13.97;63.94;101308.37;144994;640;5002;-89
2021/12/27 05:55:29;;;;;;;17.80;12.32;;;;;;;13.95;64.01;101299.59;144994;798;4566;-89
2021/12/27 05:58:04;;;;;;;18.30;14.27;;;;;;;13.96;64.29;101302.25;144994;569;4572;-90
2021/12/27 06:00:39;;;;;;;20.55;13.38;;;;;;;14.00;64.32;101303.22;144993;569;4572;-88
2021/12/27 06:03:12;;;;;;;18.73;14.50;;;;;;;14.03;64.44;101300.69;144992;713;6002;-89
2021/12/27 06:05:40;;;;;;;25.50;16.55;;;;;;;14.06;63.89;101303.38;144992;719;6002;-91
2021/12/27 06:08:15;;;;;;;25.98;15.48;;;;;;;14.10;63.74;101299.09;144992;616;6002;-90
2021/12/27 06:10:50;;;;;;;22.42;15.27;;;;;;;14.13;64.07;101301.78;144992;638;6002;-91
2021/12/27 06:13:18;;;;;;;20.77;14.52;;;;;;;14.16;64.05;101286.22;144992;588;6002;-89
2021/12/27 06:15:45;;;;;;;19.80;13.98;;;;;;;14.20;63.79;101285.41;144992;608;6002;-85
2021/12/27 06:18:13;;;;;;;22.80;15.05;;;;;;;14.21;63.89;101284.56;144992;572;6002;-90
2021/12/27 06:20:40;;;;;;;21.83;14.73;;;;;;;14.24;63.64;101286.41;144991;563;6002;-89
2021/12/27 06:23:07;;;;;;;20.92;14.90;;;;;;;14.24;63.89;101284.66;144992;645;6002;-91
2021/12/27 06:25:34;;;;;;;22.83;15.90;;;;;;;14.26;63.81;101292.53;144992;612;6002;-89
2021/12/27 06:28:02;;;;;;;30.62;18.27;;;;;;;14.28;63.67;101302.13;144992;652;6002;-89
2021/12/27 06:30:29;;;;;;;26.87;18.60;;;;;;;14.28;63.82;101306.50;144992;621;6002;-89
2021/12/27 06:32:56;;;;;;;28.73;18.80;;;;;;;14.29;63.93;101300.44;144992;594;6002;-88
2021/12/27 06:35:26;;;;;;;34.50;19.73;;;;;;;14.30;63.98;101307.41;144992;572;6002;-89
2021/12/27 06:37:52;;;;;;;39.10;19.77;;;;;;;14.31;63.46;101302.22;144992;566;6002;-88
2021/12/27 06:40:19;;;;;;;29.67;19.25;;;;;;;14.32;63.61;101311.81;144992;661;6002;-88
2021/12/27 06:42:46;;;;;;;27.83;18.35;;;;;;;14.34;63.88;101317.09;144992;620;6002;-89
2021/12/27 06:45:13;;;;;;;25.60;17.85;;;;;;;14.40;63.61;101319.84;144992;589;6002;-88
2021/12/27 06:47:41;;;;;;;31.40;19.52;;;;;;;14.43;63.84;101312.09;144992;573;6002;-90
2021/12/27 06:50:10;;;;;;;31.30;19.05;;;;;;;14.47;63.87;101316.50;144992;603;6002;-88
2021/12/27 06:52:38;;;;;;;25.58;17.20;;;;;;;14.49;63.42;101308.72;144992;565;6002;-90
2021/12/27 06:55:07;;;;;;;33.92;18.37;;;;;;;14.55;63.31;101310.59;144992;615;6002;-89
2021/12/27 06:57:34;;;;;;;35.65;17.62;;;;;;;14.64;63.73;101313.47;144991;687;6002;-89
2021/12/27 07:00:01;;;;;;;29.35;16.73;;;;;;;14.84;63.11;101313.88;144992;565;6002;-90
2021/12/27 07:02:28;;;;;;;28.05;16.40;;;;;;;15.06;63.42;101310.00;144992;630;6002;-89
2021/12/27 07:04:55;;;;;;;30.20;17.65;;;;;;;15.21;63.06;101315.56;144992;714;6002;-88
2021/12/27 07:07:21;;;;;;;28.48;17.05;;;;;;;15.36;62.93;101314.09;144992;601;6002;-88
2021/12/27 07:09:48;;;;;;;31.80;16.98;;;;;;;15.55;62.93;101315.31;144992;592;6002;-89
2021/12/27 07:12:15;;;;;;;30.40;17.60;;;;;;;15.76;63.26;101323.62;144991;609;6002;-90
2021/12/27 07:14:43;;;;;;;30.02;16.60;;;;;;;16.06;62.77;101311.91;144991;564;6002;-87
2021/12/27 07:17:09;;;;;;;24.70;16.75;;;;;;;16.42;62.80;101296.75;144992;570;6002;-89
2021/12/27 07:19:36;;;;;;;24.12;17.12;;;;;;;16.74;62.29;101304.19;144991;589;6002;-89
2021/12/27 07:22:03;;;;;;;26.08;17.40;;;;;;;17.10;62.08;101302.94;144991;603;6002;-90
2021/12/27 07:24:30;;;;;;;25.17;17.95;;;;;;;17.46;61.80;101298.97;144992;582;6002;-89
2021/12/27 07:26:56;;;;;;;31.33;18.77;;;;;;;17.72;61.46;101301.84;144992;653;6002;-89
2021/12/27 07:29:23;;;;;;;25.92;19.05;;;;;;;17.99;61.09;101301.28;144992;586;6002;-90
2021/12/27 07:31:50;;;;;;;26.33;18.95;;;;;;;18.15;60.44;101290.87;144992;605;6002;-90
2021/12/27 07:34:19;;;;;;;25.62;18.48;;;;;;;18.31;60.80;101296.25;144992;570;6002;-93
2021/12/27 07:36:48;;;;;;;27.13;19.17;;;;;;;18.49;60.31;101295.50;144992;572;6002;-89
2021/12/27 07:39:15;;;;;;;26.62;18.50;;;;;;;18.60;60.10;101292.06;144992;607;6002;-90
2021/12/27 07:41:42;;;;;;;25.40;17.55;;;;;;;18.64;59.58;101286.84;144992;566;6002;-90
2021/12/27 07:44:09;;;;;;;24.10;18.30;;;;;;;18.64;59.53;101278.03;144992;661;6002;-92
2021/12/27 07:46:40;;;;;;;26.52;18.00;;;;;;;18.60;59.19;101273.66;144992;685;6002;-89
2021/12/27 07:49:08;;;;;;;24.58;17.00;;;;;;;18.57;59.20;101284.16;144991;672;6002;-92
2021/12/27 07:51:35;;;;;;;26.42;17.23;;;;;;;18.55;58.76;101284.16;144992;594;6002;-88
2021/12/27 07:54:02;;;;;;;28.10;16.87;;;;;;;18.54;58.64;101287.63;144992;595;6002;-90
2021/12/27 07:56:29;;;;;;;26.55;16.48;;;;;;;18.60;58.78;101278.91;144992;578;6002;-88
2021/12/27 07:58:55;;;;;;;29.10;17.08;;;;;;;18.67;58.40;101272.81;144992;575;6002;-90
2021/12/27 08:01:22;;;;;;;31.55;16.70;;;;;;;18.77;58.45;101271.09;144992;596;6002;-89
2021/12/27 08:03:49;;;;;;;23.80;17.08;;;;;;;18.88;58.15;101274.69;144992;575;6002;-89
2021/12/27 08:06:16;;;;;;;24.80;17.48;;;;;;;18.88;58.30;101268.56;144992;572;6002;-90
2021/12/27 08:08:42;;;;;;;23.30;16.73;;;;;;;18.84;57.84;101270.31;144992;590;6002;-88
2021/12/27 08:11:09;;;;;;;25.52;16.87;;;;;;;18.87;57.90;101266.78;144992;582;6002;-92
2021/12/27 08:13:37;;;;;;;27.67;17.40;;;;;;;18.93;58.02;101265.09;144992;666;6002;-88
2021/12/27 08:16:04;;;;;;;26.40;17.85;;;;;;;19.01;57.88;101266.00;144992;563;6002;-91
2021/12/27 08:18:31;;;;;;;24.00;17.08;;;;;;;19.05;57.50;101256.34;144992;588;6002;-89
2021/12/27 08:20:57;;;;;;;28.38;16.92;;;;;;;19.03;57.41;101258.97;144992;588;6002;-89
2021/12/27 08:23:23;;;;;;;24.23;17.77;;;;;;;18.99;56.84;101261.59;144992;580;6003;-90
2021/12/27 08:25:50;;;;;;;30.45;16.92;;;;;;;18.87;57.22;101261.53;144992;593;6002;-88
2021/12/27 08:28:18;;;;;;;21.15;17.00;;;;;;;18.74;57.17;101261.47;144992;670;6002;-89
2021/12/27 08:30:45;;;;;;;23.02;16.20;;;;;;;18.61;57.27;101251.75;144992;681;6003;-88
2021/12/27 08:33:11;;;;;;;22.15;16.50;;;;;;;18.47;56.68;101255.19;144992;657;6002;-89
2021/12/27 08:35:40;;;;;;;24.98;16.87;;;;;;;18.39;56.86;101262.16;144992;632;6002;-89
2021/12/27 08:38:07;;;;;;;26.92;20.23;;;;;;;18.11;57.73;101251.44;144992;569;6002;-90
2021/12/27 08:40:34;;;;;;;26.20;19.75;;;;;;;18.08;57.57;101246.16;144992;569;6002;-89
2021/12/27 08:43:02;;;;;;;26.40;19.15;;;;;;;17.99;57.31;101250.47;144992;571;6002;-88
2021/12/27 08:45:29;;;;;;;24.80;18.12;;;;;;;17.82;57.49;101242.44;144992;574;6002;-89
2021/12/27 08:47:56;;;;;;;26.67;18.00;;;;;;;17.77;57.31;101250.28;144992;592;6002;-88
2021/12/27 08:50:23;;;;;;;20.65;16.15;;;;;;;17.72;57.77;101246.72;144992;570;6002;-89
2021/12/27 08:52:50;;;;;;;23.20;15.98;;;;;;;17.67;57.25;101246.66;144992;609;6002;-89
2021/12/27 08:55:16;;;;;;;25.35;14.95;;;;;;;17.65;57.60;101245.78;144992;566;6002;-89
2021/12/27 08:57:44;;;;;;;21.08;11.80;;;;;;;17.40;56.78;101245.56;144992;585;6002;-91
2021/12/27 09:00:14;;;;;;;15.70;9.02;;;;;;;17.43;56.40;101249.94;144992;580;6002;-89
2021/12/27 09:02:41;;;;;;;9.48;5.82;;;;;;;17.17;56.47;101236.56;144991;566;6002;-87
2021/12/27 09:05:08;;;;;;;10.63;5.87;;;;;;;17.14;55.77;101236.53;144992;738;6002;-88
2021/12/27 09:07:34;;;;;;;13.77;7.05;;;;;;;17.06;57.43;101238.19;144992;701;6002;-88
2021/12/27 09:10:01;;;;;;;10.68;4.75;;;;;;;17.04;56.09;101239.06;144992;634;6002;-90
2021/12/27 09:12:27;;;;;;;9.07;3.62;;;;;;;17.01;56.35;101233.75;144992;733;6002;-86
2021/12/27 09:14:54;;;;;;;13.43;3.70;;;;;;;17.10;55.90;101233.00;144992;618;6002;-88
2021/12/27 09:17:20;;;;;;;8.60;3.97;;;;;;;17.09;56.09;101233.00;144992;570;6002;-88
2021/12/27 09:19:47;;;;;;;9.95;3.03;;;;;;;17.25;55.47;101226.16;144992;569;6002;-88
2021/12/27 09:22:15;;;;;;;7.32;2.33;;;;;;;17.29;54.22;101233.19;144992;599;6002;-89
2021/12/27 09:24:44;;;;;;;7.82;2.65;;;;;;;17.19;55.24;101233.09;144992;616;6002;-85
2021/12/27 09:27:11;;;;;;;8.27;2.37;;;;;;;17.24;55.47;101220.00;144992;573;6002;-88
2021/12/27 09:29:37;;;;;;;8.23;2.37;;;;;;;17.35;54.16;101213.13;144992;618;6002;-88
2021/12/27 09:32:05;;;;;;;8.25;2.15;;;;;;;17.28;52.41;101215.69;144992;564;6002;-91
2021/12/27 09:34:31;;;;;;;5.68;1.87;;;;;;;17.10;54.29;101219.91;144992;576;6002;-90
2021/12/27 09:36:58;;;;;;;5.87;1.95;;;;;;;17.21;54.71;101209.50;144992;573;6002;-89
2021/12/27 09:39:24;;;;;;;7.72;2.00;;;;;;;17.27;54.28;101208.69;144992;700;6002;-89
2021/12/27 09:41:51;;;;;;;10.02;2.22;;;;;;;17.20;52.79;101210.37;144992;632;6002;-90
2021/12/27 09:44:17;;;;;;;7.43;2.30;;;;;;;17.14;52.77;101203.31;144992;591;6002;-86
2021/12/27 09:46:44;;;;;;;6.78;2.83;;;;;;;17.29;53.82;101199.97;144992;569;6002;-90
2021/12/27 09:49:14;;;;;;;6.28;3.25;;;;;;;17.32;53.50;101188.59;144992;587;6002;-89
2021/12/27 09:51:42;;;;;;;9.27;5.40;;;;;;;17.29;53.25;101181.59;144992;569;6002;-89
2021/12/27 09:54:09;;;;;;;8.02;2.45;;;;;;;16.99;51.71;101175.19;144992;564;6002;-92
2021/12/27 09:56:35;;;;;;;14.18;6.47;;;;;;;17.07;53.60;101170.03;144992;569;6002;-89
2021/12/27 09:59:03;;;;;;;16.90;10.13;;;;;;;17.12;52.18;101170.94;144992;603;6002;-89
2021/12/27 10:01:29;;;;;;;11.93;5.72;;;;;;;17.00;52.58;101170.81;144992;564;6002;-91
2021/12/27 10:03:58;;;;;;;9.18;3.80;;;;;;;17.09;53.51;101164.78;144992;663;6002;-89
2021/12/27 10:06:27;;;;;;;6.28;2.50;;;;;;;17.09;53.15;101167.41;144992;589;6002;-87
2021/12/27 10:08:56;;;;;;;5.82;2.00;;;;;;;16.94;51.43;101160.25;144992;574;6002;-89
2021/12/27 10:11:33;;;;;;;17.25;2.78;;;;;;;16.96;52.15;101146.31;144992;718;6002;-89
2021/12/27 10:14:24;;;;;;;6.37;2.00;;;;;;;16.97;52.61;101150.69;144992;599;6002;-90
2021/12/27 10:17:04;;;;;;;8.77;1.70;;;;;;;16.93;51.21;101142.78;144992;582;6004;-90
2021/12/27 10:19:33;;;;;;;7.05;2.12;;;;;;;16.98;52.30;101151.56;144991;568;6000;-88
2021/12/27 10:22:00;;;;;;;7.45;2.10;;;;;;;16.98;51.28;101148.94;144992;607;6002;-88
2021/12/27 10:24:28;;;;;;;8.60;1.80;;;;;;;16.93;51.85;101140.16;144992;589;6002;-89
2021/12/27 10:26:59;;;;;;;4.68;1.70;;;;;;;16.99;53.07;101142.81;144992;703;6002;-90
2021/12/27 10:29:29;;;;;;;4.37;1.80;;;;;;;16.98;51.05;101139.31;144992;694;6002;-90
2021/12/27 10:32:16;;;;;;;6.18;2.12;;;;;;;16.91;53.23;101136.62;144992;579;6002;-89
2021/12/27 10:34:45;;;;;;;9.75;2.92;;;;;;;16.92;51.39;101143.62;144992;588;6004;-88
2021/12/27 10:37:24;;;;;;;12.30;3.95;;;;;;;17.01;52.55;101141.09;144992;597;6004;-88
2021/12/27 10:40:01;;;;;;;7.82;3.10;;;;;;;17.10;52.32;101132.44;144992;576;6004;-89
2021/12/27 10:42:38;;;;;;;4.35;1.58;;;;;;;16.94;51.04;101123.53;144992;574;6004;-88
2021/12/27 10:45:11;;;;;;;6.95;2.30;;;;;;;17.00;53.20;101129.72;144991;572;6000;-87
2021/12/27 10:47:54;;;;;;;7.15;2.30;;;;;;;17.00;51.30;101119.22;144992;566;6002;-89
2021/12/27 10:50:26;;;;;;;10.60;5.35;;;;;;;16.96;52.76;101116.59;144992;690;6002;-91
2021/12/27 10:53:12;;;;;;;5.37;2.58;;;;;;;16.92;53.43;101109.53;144992;601;6002;-92
2021/12/27 10:55:42;;;;;;;9.18;3.22;;;;;;;16.96;52.48;101117.44;144992;711;6004;-89
2021/12/27 10:58:20;;;;;;;10.43;4.72;;;;;;;17.07;52.47;101119.28;144992;579;6004;-89
2021/12/27 11:01:00;;;;;;;7.68;3.72;;;;;;;17.02;52.37;101107.03;144992;562;6004;-89
2021/12/27 11:03:42;;;;;;;9.25;3.08;;;;;;;17.08;51.92;101107.94;144992;601;6004;-89
2021/12/27 11:06:14;;;;;;;6.85;3.40;;;;;;;17.13;52.40;101107.13;144991;693;6000;-90
2021/12/27 11:08:45;;;;;;;9.50;4.68;;;;;;;17.16;52.27;101103.62;144992;569;6002;-92
2021/12/27 11:11:16;;;;;;;13.27;7.25;;;;;;;17.23;52.40;101100.22;144992;569;6002;-91
2021/12/27 11:13:44;;;;;;;20.48;11.10;;;;;;;17.22;52.52;101104.56;144992;591;6002;-88
2021/12/27 11:16:11;;;;;;;23.85;16.30;;;;;;;17.29;52.92;101110.78;144992;575;6002;-87
2021/12/27 11:18:38;;;;;;;25.48;16.95;;;;;;;17.35;51.89;101107.28;144992;577;6002;-89
2021/12/27 11:21:17;;;;;;;47.33;31.60;;;;;;;17.44;52.00;101110.00;144992;638;6002;-88
2021/12/27 11:23:48;;;;;;;11.43;6.62;;;;;;;17.45;52.26;101108.25;144992;592;6002;-89
2021/12/27 11:26:21;;;;;;;8.98;4.62;;;;;;;17.48;50.23;101114.41;144992;575;6002;-89
2021/12/27 11:28:47;;;;;;;9.70;3.40;;;;;;;17.59;50.97;101112.75;144992;620;6002;-89
2021/12/27 11:31:26;;;;;;;7.03;3.85;;;;;;;17.66;49.90;101105.78;144992;566;6002;-88
2021/12/27 11:34:00;;;;;;;7.75;2.80;;;;;;;17.80;51.50;101113.75;144992;582;6002;-88
2021/12/27 11:36:29;;;;;;;6.53;2.60;;;;;;;17.95;51.95;101107.75;144992;565;6002;-86
2021/12/27 11:38:57;;;;;;;5.75;2.65;;;;;;;18.03;49.96;101108.66;144992;598;6002;-88
2021/12/27 11:41:36;;;;;;;6.70;2.80;;;;;;;18.15;49.25;101097.34;144992;638;6002;-89
2021/12/27 11:44:07;;;;;;;6.80;2.78;;;;;;;18.30;51.14;101109.66;144992;639;6002;-90
2021/12/27 11:47:09;;;;;;;7.18;2.90;;;;;;;18.27;50.11;101102.63;144992;593;6002;-89
2021/12/27 11:49:57;;;;;;;6.47;2.10;;;;;;;18.16;47.10;101101.72;144992;586;6004;-90